Time;durP1;ratioP1;P1;durP2;ratioP2;P2;SDS_P1;SDS_P2;PMS_P1;PMS_P2;Temp;Humidity;BMP_temperature;BMP_pressure;BME280_temperature;BME280_humidity;BME280_pressure;Samples;Min_cycle;Max_cycle;Signal;HPM_P1;HPM_P2
2023/02/19 00:02:00;;;;;;;9.43;5.45;;;8.70;99.90;;;;;;5006441;28;20054;-71
2023/02/19 00:04:26;;;;;;;11.85;5.90;;;8.70;99.90;;;;;;5019742;28;20053;-71
2023/02/19 00:06:52;;;;;;;9.63;5.72;;;8.60;99.90;;;;;;5034280;28;20045;-71
2023/02/19 00:09:20;;;;;;;14.93;6.20;;;8.60;99.90;;;;;;5026752;28;20053;-71
2023/02/19 00:11:47;;;;;;;12.48;5.57;;;8.60;99.90;;;;;;5012617;28;20042;-71
2023/02/19 00:14:38;;;;;;;11.63;5.65;;;8.60;99.90;;;;;;5014574;28;20041;-73
2023/02/19 00:17:05;;;;;;;13.98;7.43;;;8.70;99.90;;;;;;5024036;28;20051;-71
2023/02/19 00:19:32;;;;;;;15.85;6.68;;;8.60;99.90;;;;;;4992292;28;20075;-71
2023/02/19 00:22:00;;;;;;;13.88;6.43;;;8.60;99.90;;;;;;5026833;28;20336;-71
2023/02/19 00:24:26;;;;;;;12.30;5.97;;;8.50;99.90;;;;;;5024634;28;20048;-72
2023/02/19 00:26:53;;;;;;;11.23;6.38;;;8.60;99.90;;;;;;5025755;28;20057;-72
2023/02/19 00:29:23;;;;;;;12.25;6.30;;;8.60;99.90;;;;;;5027716;28;20054;-72
2023/02/19 00:31:51;;;;;;;12.80;5.90;;;8.70;99.90;;;;;;5008418;28;20046;-72
2023/02/19 00:34:17;;;;;;;13.40;7.20;;;8.70;99.90;;;;;;4993694;28;20069;-72
2023/02/19 00:36:43;;;;;;;13.52;6.25;;;8.60;99.90;;;;;;5010103;28;20049;-71
2023/02/19 00:39:14;;;;;;;15.55;6.75;;;8.70;99.90;;;;;;5026260;28;20049;-72
2023/02/19 00:41:43;;;;;;;11.00;6.15;;;8.70;99.90;;;;;;5005757;28;20057;-72
2023/02/19 00:44:10;;;;;;;19.70;8.00;;;8.70;99.90;;;;;;5023652;28;20049;-72
2023/02/19 00:46:37;;;;;;;16.00;7.65;;;8.80;99.90;;;;;;5029068;28;20041;-72
2023/02/19 00:49:03;;;;;;;17.63;9.13;;;8.80;99.90;;;;;;4999245;28;20050;-72
2023/02/19 00:51:31;;;;;;;16.95;8.27;;;8.80;99.90;;;;;;5003059;28;20061;-72
2023/02/19 00:53:57;;;;;;;17.33;8.25;;;8.80;99.90;;;;;;5004276;28;20046;-72
2023/02/19 00:56:23;;;;;;;12.70;7.68;;;8.90;99.90;;;;;;5027424;28;20100;-71
2023/02/19 00:58:49;;;;;;;12.15;7.40;;;8.90;99.90;;;;;;4990980;28;20045;-72
2023/02/19 01:01:15;;;;;;;17.63;8.70;;;8.90;99.90;;;;;;5022633;28;20057;-72
2023/02/19 01:03:41;;;;;;;16.83;8.02;;;8.80;99.90;;;;;;5014013;28;20048;-72
2023/02/19 01:06:07;;;;;;;15.73;8.02;;;8.90;99.90;;;;;;5019984;28;20053;-72
2023/02/19 01:08:33;;;;;;;14.90;7.45;;;8.80;99.90;;;;;;5008649;28;20594;-72
2023/02/19 01:10:59;;;;;;;14.25;7.43;;;8.90;99.90;;;;;;4989197;28;20094;-72
2023/02/19 01:13:30;;;;;;;16.20;7.47;;;8.90;99.90;;;;;;5016002;28;20052;-72
2023/02/19 01:16:15;;;;;;;12.38;7.53;;;8.90;99.90;;;;;;5017790;28;20057;-72
2023/02/19 01:18:41;;;;;;;18.70;7.82;;;8.80;99.90;;;;;;5023949;28;20042;-72
2023/02/19 01:21:08;;;;;;;14.80;7.20;;;8.90;99.90;;;;;;5046151;28;20045;-72
2023/02/19 01:23:34;;;;;;;12.80;6.35;;;8.90;99.90;;;;;;5022877;28;20092;-72
2023/02/19 01:26:06;;;;;;;11.23;6.35;;;8.90;99.90;;;;;;5012016;28;20058;-72
2023/02/19 01:28:32;;;;;;;12.68;6.15;;;8.90;99.90;;;;;;5007375;28;20037;-72
2023/02/19 01:31:04;;;;;;;12.30;6.57;;;8.90;99.90;;;;;;5027924;28;20051;-72
2023/02/19 01:33:30;;;;;;;17.15;6.03;;;8.90;99.90;;;;;;5024016;28;20077;-71
2023/02/19 01:35:56;;;;;;;17.58;6.75;;;8.80;99.90;;;;;;4999875;28;20069;-71
2023/02/19 01:38:22;;;;;;;12.40;6.15;;;8.80;99.90;;;;;;5008041;28;20045;-71
2023/02/19 01:40:56;;;;;;;14.85;6.45;;;8.80;99.90;;;;;;4984629;28;20060;-71
2023/02/19 01:43:22;;;;;;;11.50;7.63;;;8.70;99.90;;;;;;4984856;28;20500;-71
2023/02/19 01:45:48;;;;;;;21.55;9.02;;;8.70;99.90;;;;;;5028117;28;20080;-71
2023/02/19 01:48:29;;;;;;;14.52;7.68;;;8.70;99.90;;;;;;4989349;28;20049;-71
2023/02/19 01:51:05;;;;;;;13.80;7.20;;;8.70;99.90;;;;;;5014523;28;20689;-71
2023/02/19 01:53:38;;;;;;;14.98;7.70;;;8.80;99.90;;;;;;5018557;28;20379;-71
2023/02/19 01:56:04;;;;;;;12.95;7.30;;;8.70;99.90;;;;;;4996162;28;20041;-71
2023/02/19 01:58:32;;;;;;;16.33;8.35;;;8.70;99.90;;;;;;5018358;28;20042;-71
2023/02/19 02:00:58;;;;;;;17.10;7.90;;;8.70;99.90;;;;;;5018599;28;20110;-71
2023/02/19 02:03:24;;;;;;;20.42;8.15;;;8.60;99.90;;;;;;5012280;28;20401;-71
2023/02/19 02:06:21;;;;;;;12.07;7.53;;;8.60;99.90;;;;;;5014820;28;20049;-72
2023/02/19 02:11:33;;;;;;;15.90;8.85;;;8.60;99.90;;;;;;5018218;28;20041;-72
2023/02/19 02:13:58;;;;;;;16.05;7.90;;;8.60;99.90;;;;;;5029362;28;20037;-71
2023/02/19 02:16:29;;;;;;;11.63;7.40;;;8.70;99.90;;;;;;5021317;28;20041;-73
2023/02/19 02:19:07;;;;;;;16.23;9.32;;;8.70;99.90;;;;;;5024851;28;20038;-73
2023/02/19 02:21:58;;;;;;;15.32;8.65;;;8.70;99.90;;;;;;4980381;28;20050;-72
2023/02/19 02:24:41;;;;;;;18.63;9.55;;;8.60;99.90;;;;;;5011547;28;20356;-72
2023/02/19 02:27:40;;;;;;;15.68;7.72;;;8.60;99.90;;;;;;4995234;28;20049;-72
2023/02/19 02:30:21;;;;;;;13.18;7.30;;;8.60;99.90;;;;;;5005619;28;21071;-73
2023/02/19 02:33:20;;;;;;;13.98;7.90;;;8.60;99.90;;;;;;5045612;28;20056;-73
2023/02/19 02:35:59;;;;;;;13.57;7.53;;;8.60;99.90;;;;;;5000371;28;20038;-73
2023/02/19 02:38:27;;;;;;;9.85;6.35;;;8.60;99.90;;;;;;5008516;28;20120;-72
2023/02/19 02:40:53;;;;;;;14.25;7.05;;;8.50;99.90;;;;;;5030253;28;20604;-72
2023/02/19 02:43:19;;;;;;;12.82;6.20;;;8.60;99.90;;;;;;5047766;28;20060;-73
2023/02/19 02:45:45;;;;;;;9.48;6.35;;;8.60;99.90;;;;;;4997968;28;20045;-73
2023/02/19 02:48:38;;;;;;;12.07;6.05;;;8.50;99.90;;;;;;5031093;28;20140;-73
2023/02/19 02:51:03;;;;;;;10.10;5.20;;;8.50;99.90;;;;;;5024595;28;20049;-73
2023/02/19 02:56:25;;;;;;;11.52;5.50;;;8.50;99.90;;;;;;5027239;28;20489;-74
2023/02/19 02:58:51;;;;;;;9.35;4.97;;;8.60;99.90;;;;;;4998972;28;20037;-74
2023/02/19 03:04:34;;;;;;;8.48;4.00;;;8.50;99.90;;;;;;5032192;28;20385;-73
2023/02/19 03:07:04;;;;;;;7.82;4.20;;;8.50;99.90;;;;;;5037165;28;20148;-73
2023/02/19 03:09:33;;;;;;;6.65;3.72;;;8.50;99.90;;;;;;5017775;28;20076;-73
2023/02/19 03:20:26;;;;;;;4.57;2.70;;;8.40;99.90;;;;;;5015775;28;20357;-73
2023/02/19 03:22:52;;;;;;;5.50;2.70;;;8.40;99.90;;;;;;5020906;28;20116;-73
2023/02/19 03:28:09;;;;;;;6.70;2.80;;;8.40;99.90;;;;;;5023037;28;20381;-73
2023/02/19 03:30:41;;;;;;;4.60;2.45;;;8.30;99.90;;;;;;5030150;28;20045;-73
2023/02/19 03:33:24;;;;;;;6.18;2.70;;;8.30;99.90;;;;;;4995448;28;20407;-73
2023/02/19 03:35:53;;;;;;;6.72;3.38;;;8.30;99.90;;;;;;5013426;28;20125;-73
2023/02/19 03:38:38;;;;;;;;;;;8.30;99.90;;;;;;5021002;28;20052;-73
2023/02/19 03:41:33;;;;;;;4.68;2.42;;;8.40;99.90;;;;;;5030996;28;19913;-73
2023/02/19 03:44:07;;;;;;;3.30;1.75;;;8.40;99.90;;;;;;5018335;28;20042;-73
2023/02/19 03:46:57;;;;;;;3.17;1.90;;;8.10;99.90;;;;;;5003886;28;20144;-72
2023/02/19 03:49:28;;;;;;;2.45;1.60;;;7.90;99.90;;;;;;5022258;28;20042;-73
2023/02/19 03:52:36;;;;;;;2.60;1.70;;;7.70;99.90;;;;;;5007210;28;20058;-73
2023/02/19 03:55:04;;;;;;;1.90;1.35;;;7.60;99.90;;;;;;5033395;28;20052;-73
2023/02/19 03:57:36;;;;;;;4.47;1.33;;;7.40;99.90;;;;;;5016713;28;20429;-73
2023/02/19 04:00:12;;;;;;;2.22;1.35;;;7.20;99.90;;;;;;5040378;28;20053;-73
2023/02/19 04:02:49;;;;;;;2.75;1.77;;;7.00;99.90;;;;;;5023810;28;20049;-73
2023/02/19 04:05:18;;;;;;;5.07;2.55;;;7.00;99.90;;;;;;5028772;28;20053;-73
2023/02/19 04:07:45;;;;;;;3.40;2.05;;;6.90;99.90;;;;;;5010983;28;20045;-73
2023/02/19 04:10:11;;;;;;;6.25;3.50;;;6.90;99.90;;;;;;5012728;28;20457;-73
2023/02/19 04:12:38;;;;;;;6.93;3.72;;;6.80;99.90;;;;;;4995010;28;20747;-73
2023/02/19 04:15:10;;;;;;;5.53;3.85;;;6.70;99.90;;;;;;5023375;28;20045;-73
2023/02/19 04:17:41;;;;;;;7.15;3.83;;;6.70;99.90;;;;;;5012567;28;20042;-73
2023/02/19 04:20:07;;;;;;;6.20;3.90;;;6.70;99.90;;;;;;5002761;28;20470;-73
2023/02/19 04:22:34;;;;;;;5.28;3.20;;;6.80;99.90;;;;;;4995235;28;20465;-72
2023/02/19 04:25:00;;;;;;;5.82;3.25;;;6.60;99.90;;;;;;5006271;28;20111;-73
2023/02/19 04:27:26;;;;;;;5.03;2.80;;;6.50;99.90;;;;;;4986840;28;20417;-73
2023/02/19 04:29:52;;;;;;;5.90;3.78;;;6.60;99.90;;;;;;5010413;28;20046;-73
2023/02/19 04:32:18;;;;;;;7.13;3.70;;;6.50;99.90;;;;;;5003639;28;20049;-73
2023/02/19 04:34:43;;;;;;;4.78;3.28;;;6.60;99.90;;;;;;5024899;28;20053;-73
2023/02/19 04:37:09;;;;;;;5.20;2.97;;;6.70;99.90;;;;;;5021264;28;20046;-73
2023/02/19 04:39:35;;;;;;;4.40;2.72;;;6.60;99.90;;;;;;5014006;28;20759;-73
2023/02/19 04:42:01;;;;;;;4.38;2.63;;;6.60;99.90;;;;;;5002741;28;20045;-73
2023/02/19 04:44:26;;;;;;;5.00;2.88;;;6.60;99.90;;;;;;5010017;28;20038;-72
2023/02/19 04:46:52;;;;;;;5.60;3.45;;;6.60;99.90;;;;;;5026700;28;20050;-72
2023/02/19 04:49:18;;;;;;;5.68;3.58;;;6.40;99.90;;;;;;5001329;28;20108;-73
2023/02/19 04:51:43;;;;;;;5.40;3.30;;;6.30;99.90;;;;;;5026443;28;20060;-72
2023/02/19 04:54:09;;;;;;;7.40;3.90;;;6.40;99.90;;;;;;5015391;28;20481;-73
2023/02/19 04:56:35;;;;;;;6.70;3.65;;;6.30;99.90;;;;;;5033867;28;20056;-73
2023/02/19 04:59:01;;;;;;;5.88;3.83;;;6.30;99.90;;;;;;5026551;28;20346;-73
2023/02/19 05:01:26;;;;;;;6.43;4.03;;;6.40;99.90;;;;;;5029159;28;20073;-73
2023/02/19 05:03:52;;;;;;;5.93;3.90;;;6.40;99.90;;;;;;5023198;28;20045;-72
2023/02/19 05:06:19;;;;;;;6.15;3.70;;;6.30;99.90;;;;;;5023851;28;20073;-73
2023/02/19 05:08:45;;;;;;;5.82;3.85;;;6.20;99.90;;;;;;5005891;28;20053;-73
2023/02/19 05:11:11;;;;;;;7.82;4.20;;;6.10;99.90;;;;;;5010802;28;20049;-72
2023/02/19 05:13:37;;;;;;;5.22;3.30;;;6.10;99.90;;;;;;4996621;28;20045;-73
2023/02/19 05:16:09;;;;;;;5.97;3.53;;;6.10;99.90;;;;;;5003504;28;20045;-73
2023/02/19 05:18:34;;;;;;;8.02;3.58;;;6.20;99.90;;;;;;5021345;28;20056;-72
2023/02/19 05:21:00;;;;;;;7.00;3.40;;;6.10;99.90;;;;;;5009279;28;20049;-72
2023/02/19 05:23:26;;;;;;;9.07;4.10;;;6.10;99.90;;;;;;5013776;28;20049;-73
2023/02/19 05:25:52;;;;;;;9.60;3.63;;;6.00;99.90;;;;;;5021177;28;20077;-72
2023/02/19 05:28:18;;;;;;;5.75;3.28;;;5.90;99.90;;;;;;5003807;28;20046;-73
2023/02/19 05:30:48;;;;;;;7.75;3.33;;;5.80;99.90;;;;;;5015170;28;20045;-72
2023/02/19 05:33:14;;;;;;;6.78;3.08;;;5.80;99.90;;;;;;5022573;28;20132;-73
2023/02/19 05:35:47;;;;;;;6.90;3.88;;;5.80;99.90;;;;;;5005427;28;20232;-73
2023/02/19 05:38:13;;;;;;;8.65;3.85;;;5.70;99.90;;;;;;5014768;28;20046;-73
2023/02/19 05:40:39;;;;;;;7.03;3.85;;;5.70;99.90;;;;;;5001930;28;20060;-72
2023/02/19 05:43:05;;;;;;;8.93;4.35;;;5.60;99.90;;;;;;5017332;28;20053;-73
2023/02/19 05:45:30;;;;;;;9.13;4.45;;;5.50;99.90;;;;;;5012303;28;20057;-73
2023/02/19 05:47:56;;;;;;;9.25;5.53;;;5.50;99.90;;;;;;4986829;28;20050;-73
2023/02/19 05:50:22;;;;;;;9.38;4.65;;;5.40;99.90;;;;;;4999244;28;20192;-73
2023/02/19 05:52:47;;;;;;;6.80;4.47;;;5.40;99.90;;;;;;5019117;28;20056;-72
2023/02/19 05:55:13;;;;;;;6.40;4.10;;;5.40;99.90;;;;;;5011001;28;20046;-73
2023/02/19 05:57:43;;;;;;;8.57;3.40;;;5.40;99.90;;;;;;5017903;28;20049;-73
2023/02/19 06:00:11;;;;;;;6.25;3.17;;;5.30;99.90;;;;;;4998328;28;20157;-72
2023/02/19 06:02:36;;;;;;;4.15;2.45;;;5.10;99.90;;;;;;4979963;28;20046;-72
2023/02/19 06:05:02;;;;;;;5.15;2.30;;;5.10;99.90;;;;;;5008049;28;20373;-72
2023/02/19 06:07:29;;;;;;;3.97;2.08;;;5.10;99.90;;;;;;5024383;28;20636;-73
2023/02/19 06:09:55;;;;;;;4.57;1.58;;;5.10;99.90;;;;;;5011563;28;20085;-72
2023/02/19 06:12:21;;;;;;;5.38;1.55;;;5.00;99.90;;;;;;5035217;28;20070;-72
2023/02/19 06:14:47;;;;;;;3.38;1.05;;;5.00;99.90;;;;;;5002387;28;20100;-73
2023/02/19 06:17:13;;;;;;;2.42;0.95;;;4.90;99.90;;;;;;4995777;28;20080;-72
2023/02/19 06:19:38;;;;;;;2.28;0.85;;;4.90;99.90;;;;;;5022516;28;20052;-73
2023/02/19 06:22:04;;;;;;;2.60;1.00;;;4.90;99.90;;;;;;5024329;28;20070;-73
2023/02/19 06:24:30;;;;;;;1.95;0.93;;;4.80;99.90;;;;;;5020173;28;20048;-73
2023/02/19 06:26:56;;;;;;;3.00;1.30;;;4.90;99.90;;;;;;5017852;28;20057;-73
2023/02/19 06:29:21;;;;;;;4.22;1.05;;;4.90;99.90;;;;;;5027284;28;20037;-72
2023/02/19 06:31:48;;;;;;;2.08;1.00;;;4.80;99.90;;;;;;5021016;28;20076;-73
2023/02/19 06:34:13;;;;;;;3.30;1.85;;;4.90;99.90;;;;;;5016885;28;20379;-73
2023/02/19 06:36:39;;;;;;;2.17;1.20;;;4.70;99.90;;;;;;5012010;28;20085;-72
2023/02/19 06:39:05;;;;;;;5.45;1.38;;;4.90;99.90;;;;;;5014140;28;20080;-73
2023/02/19 06:41:31;;;;;;;1.58;1.00;;;4.80;99.90;;;;;;5008084;28;20474;-72
2023/02/19 06:43:57;;;;;;;2.67;0.80;;;4.90;99.90;;;;;;5017567;28;20478;-73
2023/02/19 06:46:23;;;;;;;2.40;0.80;;;4.90;99.90;;;;;;5024035;28;20123;-73
2023/02/19 06:48:48;;;;;;;1.08;0.60;;;4.80;99.90;;;;;;5007160;28;20359;-74
2023/02/19 06:51:18;;;;;;;2.08;0.88;;;4.80;99.90;;;;;;5017795;28;20053;-73
2023/02/19 06:53:44;;;;;;;1.55;0.90;;;4.80;99.90;;;;;;5020092;28;20128;-73
2023/02/19 06:56:29;;;;;;;2.55;0.80;;;4.50;99.90;;;;;;4999335;28;20049;-73
2023/02/19 06:58:58;;;;;;;3.58;1.00;;;4.70;99.90;;;;;;5018232;28;20521;-72
2023/02/19 07:01:24;;;;;;;2.75;1.27;;;4.70;99.90;;;;;;5019788;28;20088;-72
2023/02/19 07:03:51;;;;;;;2.05;1.05;;;4.60;99.90;;;;;;4986542;28;20073;-72
2023/02/19 07:06:17;;;;;;;3.38;1.10;;;4.70;99.90;;;;;;5023942;28;20127;-72
2023/02/19 07:08:43;;;;;;;3.15;1.20;;;4.70;99.90;;;;;;5017196;28;20042;-72
2023/02/19 07:11:09;;;;;;;1.55;0.90;;;4.70;99.90;;;;;;5001655;28;20049;-73
2023/02/19 07:13:35;;;;;;;2.28;1.20;;;4.60;99.90;;;;;;5029789;28;20061;-73
2023/02/19 07:16:02;;;;;;;3.30;1.38;;;4.60;99.90;;;;;;5023980;28;20037;-73
2023/02/19 07:18:28;;;;;;;2.40;1.40;;;4.70;99.90;;;;;;5013246;28;20373;-72
2023/02/19 07:20:54;;;;;;;2.70;1.70;;;4.70;99.90;;;;;;5017519;28;20077;-73
2023/02/19 07:23:20;;;;;;;3.17;1.63;;;4.70;99.90;;;;;;5005403;28;20108;-73
2023/02/19 07:25:46;;;;;;;2.65;1.55;;;4.70;99.90;;;;;;5014169;28;20107;-72
2023/02/19 07:28:11;;;;;;;4.35;1.70;;;4.80;99.90;;;;;;5015749;28;20053;-72
2023/02/19 07:30:37;;;;;;;4.20;1.88;;;4.80;99.90;;;;;;5000017;28;20048;-72
2023/02/19 07:33:03;;;;;;;3.92;2.13;;;4.70;99.90;;;;;;5030475;28;20049;-71
2023/02/19 07:35:29;;;;;;;5.30;2.80;;;4.70;99.90;;;;;;5002305;28;20355;-71
2023/02/19 07:37:54;;;;;;;6.53;3.03;;;4.60;99.90;;;;;;5027739;28;20103;-71
2023/02/19 07:40:20;;;;;;;3.95;2.45;;;4.40;99.90;;;;;;5033089;28;20063;-71
2023/02/19 07:42:46;;;;;;;5.03;3.13;;;4.40;99.90;;;;;;5027009;28;20059;-72
2023/02/19 07:45:12;;;;;;;3.63;2.25;;;4.40;99.90;;;;;;5021755;28;20046;-72
2023/02/19 07:47:37;;;;;;;4.40;2.63;;;4.50;99.90;;;;;;4997221;28;20077;-72
2023/02/19 07:50:03;;;;;;;3.80;2.30;;;4.50;99.90;;;;;;4999079;28;20084;-71
2023/02/19 07:52:29;;;;;;;5.70;2.50;;;4.40;99.90;;;;;;5057678;28;20046;-71
2023/02/19 07:54:55;;;;;;;4.22;2.47;;;4.40;99.90;;;;;;5003971;28;20061;-72
2023/02/19 07:57:21;;;;;;;5.30;2.70;;;4.40;99.90;;;;;;4985520;28;20049;-72
2023/02/19 07:59:47;;;;;;;4.40;2.85;;;4.50;99.90;;;;;;5006646;28;20046;-76
2023/02/19 08:05:01;;;;;;;;;;;4.60;99.90;;;;;;5032791;28;20430;-75
2023/02/19 08:07:33;;;;;;;4.85;2.95;;;4.60;99.90;;;;;;5045351;28;19951;-75
2023/02/19 08:15:28;;;;;;;6.00;3.80;;;4.70;99.90;;;;;;5032194;28;20045;-75
2023/02/19 08:17:54;;;;;;;4.05;2.65;;;4.60;99.90;;;;;;5004984;28;20042;-75
2023/02/19 08:20:20;;;;;;;5.78;3.05;;;4.70;99.90;;;;;;5032009;28;20049;-76
2023/02/19 08:22:47;;;;;;;8.32;3.30;;;4.60;99.90;;;;;;5033539;28;20124;-76
2023/02/19 08:25:13;;;;;;;5.05;3.38;;;4.60;99.90;;;;;;5006093;28;20805;-76
2023/02/19 08:27:38;;;;;;;6.38;3.50;;;4.60;99.90;;;;;;5014434;28;20078;-75
2023/02/19 08:30:05;;;;;;;5.63;3.78;;;4.70;99.90;;;;;;5026193;28;20057;-72
2023/02/19 08:32:31;;;;;;;9.43;3.95;;;4.60;99.90;;;;;;5035194;28;20101;-72
2023/02/19 08:34:56;;;;;;;7.93;4.10;;;4.80;99.90;;;;;;5027714;28;20129;-72
2023/02/19 08:37:22;;;;;;;6.68;3.58;;;4.90;99.90;;;;;;5031850;28;20132;-72
2023/02/19 08:39:48;;;;;;;5.28;3.30;;;4.70;99.90;;;;;;5013065;28;20053;-72
2023/02/19 08:42:13;;;;;;;6.15;3.35;;;4.50;99.90;;;;;;5015955;28;20054;-72
2023/02/19 08:44:39;;;;;;;6.03;3.50;;;4.50;99.90;;;;;;5028149;28;20052;-73
2023/02/19 08:47:06;;;;;;;6.47;3.65;;;4.70;99.90;;;;;;5034743;28;20091;-73
2023/02/19 08:49:32;;;;;;;7.32;3.83;;;4.90;99.90;;;;;;5016705;28;20053;-73
2023/02/19 08:51:59;;;;;;;4.88;3.10;;;5.00;99.90;;;;;;5017065;28;20127;-76
2023/02/19 08:54:25;;;;;;;6.72;3.70;;;5.00;99.90;;;;;;5002351;28;20114;-76
2023/02/19 08:56:51;;;;;;;5.53;2.83;;;5.00;99.90;;;;;;5044577;28;20439;-75
2023/02/19 08:59:19;;;;;;;4.47;2.65;;;5.10;99.90;;;;;;5024709;28;20049;-75
2023/02/19 09:01:44;;;;;;;5.47;2.80;;;5.10;99.90;;;;;;5022352;28;20049;-75
2023/02/19 09:04:13;;;;;;;5.65;3.10;;;5.20;99.90;;;;;;5022030;28;20055;-75
2023/02/19 09:06:39;;;;;;;4.97;2.75;;;5.10;99.90;;;;;;5030204;28;20758;-75
2023/02/19 09:09:05;;;;;;;5.70;2.67;;;5.20;99.90;;;;;;4996003;28;20100;-75
2023/02/19 09:11:30;;;;;;;4.05;2.35;;;5.30;99.90;;;;;;5031523;28;20045;-76
2023/02/19 09:13:56;;;;;;;6.55;2.83;;;5.40;99.90;;;;;;5028778;28;20042;-76
2023/02/19 09:16:22;;;;;;;4.75;3.00;;;5.40;99.90;;;;;;5005165;28;20177;-76
2023/02/19 09:18:49;;;;;;;5.72;2.47;;;5.40;99.90;;;;;;5007198;28;20045;-75
2023/02/19 09:21:14;;;;;;;3.85;2.22;;;5.40;99.90;;;;;;5015335;28;20045;-75
2023/02/19 09:23:40;;;;;;;4.90;2.10;;;5.40;99.90;;;;;;5027948;28;20502;-75
2023/02/19 09:26:08;;;;;;;3.63;1.98;;;5.40;99.90;;;;;;5028684;28;20068;-76
2023/02/19 09:28:34;;;;;;;;;;;5.40;99.90;;;;;;5022607;28;20072;-76
2023/02/19 09:31:04;;;;;;;5.35;2.40;;;5.50;99.90;;;;;;5015400;28;19917;-75
2023/02/19 09:33:30;;;;;;;5.18;1.95;;;5.60;99.90;;;;;;5015594;28;20042;-76
2023/02/19 09:35:59;;;;;;;6.32;1.85;;;5.60;99.90;;;;;;5029628;28;20037;-75
2023/02/19 09:38:25;;;;;;;5.93;2.33;;;5.60;99.90;;;;;;5039692;28;20041;-76
2023/02/19 09:40:51;;;;;;;3.78;1.63;;;5.60;99.90;;;;;;5026272;28;20053;-76
2023/02/19 09:43:20;;;;;;;5.50;2.00;;;5.70;99.90;;;;;;5012309;28;20045;-75
2023/02/19 09:45:46;;;;;;;4.85;2.00;;;6.00;99.90;;;;;;5015900;28;20041;-76
2023/02/19 09:48:12;;;;;;;3.83;1.67;;;6.00;99.90;;;;;;5004705;28;20068;-76
2023/02/19 09:50:46;;;;;;;6.70;1.70;;;5.90;99.90;;;;;;5020084;28;20383;-75
2023/02/19 09:53:20;;;;;;;8.90;2.92;;;6.00;99.90;;;;;;4994697;28;20037;-76
2023/02/19 09:55:46;;;;;;;4.88;2.20;;;5.90;99.90;;;;;;5020586;28;20050;-75
2023/02/19 09:58:32;;;;;;;5.97;2.10;;;5.90;99.90;;;;;;5026155;28;20057;-74
2023/02/19 10:01:00;;;;;;;8.55;2.70;;;5.70;99.90;;;;;;4997746;28;20208;-75
2023/02/19 10:03:30;;;;;;;5.70;2.40;;;5.70;99.90;;;;;;5006191;28;20489;-75
2023/02/19 10:06:07;;;;;;;7.00;2.08;;;5.80;99.90;;;;;;5004743;28;20554;-75
2023/02/19 10:08:33;;;;;;;4.10;1.95;;;6.00;99.90;;;;;;5017298;28;20048;-75
2023/02/19 10:11:00;;;;;;;4.28;2.00;;;6.30;99.90;;;;;;5003020;28;20146;-75
2023/02/19 10:13:36;;;;;;;5.97;2.10;;;6.40;99.90;;;;;;5008408;28;20075;-75
2023/02/19 10:16:04;;;;;;;7.47;2.25;;;6.30;99.90;;;;;;5006010;28;20049;-75
2023/02/19 10:18:37;;;;;;;7.10;2.38;;;6.10;99.90;;;;;;5026464;28;20049;-75
2023/02/19 10:21:04;;;;;;;6.13;2.08;;;6.00;99.90;;;;;;5016283;28;20126;-75
2023/02/19 10:23:29;;;;;;;8.32;2.05;;;6.10;99.90;;;;;;5003344;28;20041;-75
2023/02/19 10:25:56;;;;;;;10.25;2.53;;;6.30;99.90;;;;;;4990379;28;20045;-76
2023/02/19 10:28:24;;;;;;;6.47;2.80;;;6.70;99.90;;;;;;4996268;28;20386;-75
2023/02/19 10:30:52;;;;;;;4.65;2.10;;;6.80;99.90;;;;;;5025381;28;20053;-75
2023/02/19 10:33:18;;;;;;;5.75;2.13;;;6.60;99.90;;;;;;5034039;28;20820;-75
2023/02/19 10:35:56;;;;;;;7.35;2.05;;;6.50;99.90;;;;;;5026761;28;20128;-75
2023/02/19 10:38:27;;;;;;;9.02;2.10;;;6.50;99.90;;;;;;5024844;28;20106;-75
2023/02/19 10:41:17;;;;;;;8.38;2.47;;;6.70;99.90;;;;;;5009793;28;20134;-75
2023/02/19 10:43:50;;;;;;;6.22;2.15;;;6.70;99.90;;;;;;4999561;28;20060;-75
2023/02/19 10:46:27;;;;;;;7.13;1.95;;;6.50;99.90;;;;;;4988876;28;20053;-75
2023/02/19 10:49:04;;;;;;;6.53;2.22;;;6.50;99.90;;;;;;5008196;28;20060;-76
2023/02/19 10:51:39;;;;;;;6.43;1.80;;;7.00;99.90;;;;;;4991853;28;20053;-76
2023/02/19 10:54:30;;;;;;;9.73;2.05;;;7.00;99.90;;;;;;5005066;28;20072;-76
2023/02/19 10:57:14;;;;;;;7.78;2.65;;;7.50;99.90;;;;;;5033830;28;20370;-76
2023/02/19 10:59:48;;;;;;;8.20;2.10;;;7.80;99.90;;;;;;5003473;28;20052;-77
2023/02/19 11:02:18;;;;;;;6.88;1.90;;;7.60;99.90;;;;;;5002935;28;20041;-76
2023/02/19 11:05:08;;;;;;;7.20;2.00;;;7.80;99.90;;;;;;5005398;28;20046;-77
2023/02/19 11:07:35;;;;;;;13.05;2.17;;;8.30;99.90;;;;;;4981109;28;20042;-76
2023/02/19 11:10:01;;;;;;;9.43;1.95;;;8.70;99.90;;;;;;5003656;28;20344;-76
2023/02/19 11:12:32;;;;;;;5.15;1.60;;;8.80;99.90;;;;;;5002837;28;20052;-77
2023/02/19 11:15:00;;;;;;;7.20;1.80;;;8.30;99.90;;;;;;5005929;28;20038;-76
2023/02/19 11:17:27;;;;;;;8.80;1.95;;;8.60;99.90;;;;;;5024625;28;20037;-76
2023/02/19 11:19:54;;;;;;;6.63;1.80;;;8.10;99.90;;;;;;4988352;28;20042;-76
2023/02/19 11:22:30;;;;;;;7.57;1.58;;;7.90;99.90;;;;;;5026804;28;20489;-76
2023/02/19 11:24:56;;;;;;;11.23;2.20;;;7.90;99.90;;;;;;5011925;28;20379;-75
2023/02/19 11:27:22;;;;;;;4.85;1.70;;;11.70;99.90;;;;;;5003702;28;20458;-76
2023/02/19 11:29:48;;;;;;;7.40;2.28;;;14.40;84.20;;;;;;5005322;28;20366;-76
2023/02/19 11:32:20;;;;;;;5.70;1.98;;;14.90;66.60;;;;;;5014326;28;20034;-76
2023/02/19 11:34:46;;;;;;;11.13;2.50;;;15.80;69.20;;;;;;5020737;28;20038;-76
2023/02/19 11:37:13;;;;;;;6.30;2.03;;;14.70;63.70;;;;;;5006307;28;20110;-76
2023/02/19 11:39:49;;;;;;;6.90;1.92;;;11.60;90.10;;;;;;5010275;28;20037;-76
2023/02/19 11:42:36;;;;;;;7.50;1.95;;;10.80;91.20;;;;;;5026599;28;20079;-76
2023/02/19 11:45:26;;;;;;;8.65;1.83;;;9.20;99.10;;;;;;5021515;28;20052;-76
2023/02/19 11:48:01;;;;;;;9.82;2.22;;;11.70;92.70;;;;;;5027113;28;20053;-76
2023/02/19 11:50:55;;;;;;;6.68;2.00;;;13.30;77.00;;;;;;4992771;28;20168;-77
2023/02/19 11:53:27;;;;;;;7.30;2.63;;;14.10;73.40;;;;;;5027318;28;20063;-75
2023/02/19 11:56:17;;;;;;;10.18;3.08;;;13.40;68.80;;;;;;5038081;28;20041;-76
2023/02/19 11:58:55;;;;;;;7.43;2.50;;;11.40;87.40;;;;;;5041511;28;20462;-76
2023/02/19 12:01:49;;;;;;;7.03;2.83;;;10.80;90.20;;;;;;5014195;28;20072;-75
2023/02/19 12:04:46;;;;;;;11.23;3.88;;;9.80;93.80;;;;;;5034202;28;20374;-76
2023/02/19 12:07:30;;;;;;;9.73;3.83;;;10.60;92.80;;;;;;5013195;28;20049;-75
2023/02/19 12:10:10;;;;;;;9.55;3.83;;;9.70;96.10;;;;;;5017735;28;20041;-76
2023/02/19 12:13:14;;;;;;;10.90;3.65;;;11.10;91.40;;;;;;5033303;28;20474;-76
2023/02/19 12:15:46;;;;;;;9.10;3.78;;;12.80;80.20;;;;;;5025028;28;20050;-76
2023/02/19 12:18:43;;;;;;;9.18;4.25;;;12.90;73.60;;;;;;5029083;28;20045;-76
2023/02/19 12:21:22;;;;;;;10.20;4.10;;;11.80;85.20;;;;;;5049860;28;20541;-76
2023/02/19 12:24:06;;;;;;;;;;;11.30;90.10;;;;;;5020091;28;20062;-76
2023/02/19 12:26:58;;;;;;;7.25;2.38;;;11.30;89.60;;;;;;5029416;28;20591;-77
2023/02/19 12:29:27;;;;;;;6.20;2.22;;;11.80;88.60;;;;;;5024017;28;20045;-76
2023/02/19 12:32:19;;;;;;;5.22;2.10;;;12.60;79.80;;;;;;5025816;28;20048;-76
2023/02/19 12:35:10;;;;;;;7.50;2.25;;;11.90;76.60;;;;;;5043816;28;20042;-76
2023/02/19 12:38:11;;;;;;;7.03;1.75;;;10.90;84.90;;;;;;5031636;28;20477;-75
2023/02/19 12:41:18;;;;;;;4.82;1.70;;;11.90;79.00;;;;;;5028423;28;20424;-75
2023/02/19 12:43:57;;;;;;;6.00;2.10;;;14.40;65.80;;;;;;5038752;28;20041;-76
2023/02/19 12:46:36;;;;;;;9.13;2.15;;;15.30;61.50;;;;;;5019096;28;20049;-76
2023/02/19 12:49:17;;;;;;;4.68;1.42;;;15.30;61.50;;;;;;5021145;28;20042;-76
2023/02/19 12:51:48;;;;;;;5.97;1.70;;;15.00;61.10;;;;;;5031791;28;20613;-76
2023/02/19 12:54:19;;;;;;;4.72;1.70;;;12.30;74.00;;;;;;5019025;28;20073;-76
2023/02/19 12:56:59;;;;;;;4.93;1.50;;;11.40;82.00;;;;;;5028410;28;20045;-75
2023/02/19 12:59:28;;;;;;;4.97;1.15;;;12.20;78.40;;;;;;5006776;28;20037;-75
2023/02/19 13:01:58;;;;;;;4.65;1.30;;;12.70;70.90;;;;;;5028307;28;20139;-76
2023/02/19 13:04:44;;;;;;;5.53;1.35;;;12.40;72.50;;;;;;5022730;28;20374;-75
2023/02/19 13:07:18;;;;;;;4.95;1.27;;;12.80;74.00;;;;;;5011068;28;20045;-75
2023/02/19 13:10:05;;;;;;;5.68;1.13;;;13.10;69.90;;;;;;5051865;28;20528;-76
2023/02/19 13:12:37;;;;;;;7.22;1.20;;;12.20;75.00;;;;;;5014387;28;20042;-76
2023/02/19 13:15:06;;;;;;;4.00;1.27;;;12.30;77.00;;;;;;5007636;28;20413;-76
2023/02/19 13:17:41;;;;;;;7.50;1.20;;;14.50;64.60;;;;;;5020599;28;20065;-76
2023/02/19 13:20:16;;;;;;;3.20;1.30;;;14.30;62.10;;;;;;5000168;28;20056;-75
2023/02/19 13:26:28;;;;;;;3.78;1.10;;;16.80;52.60;;;;;;5036314;28;20374;-75
2023/02/19 13:29:25;;;;;;;6.10;1.20;;;15.50;55.50;;;;;;5018042;28;20041;-75
2023/02/19 13:32:12;;;;;;;4.28;1.25;;;16.20;52.70;;;;;;5018901;28;20060;-76
2023/02/19 13:35:06;;;;;;;4.93;1.55;;;14.40;57.50;;;;;;5027947;28;20046;-76
2023/02/19 13:37:33;;;;;;;3.60;1.20;;;16.60;51.50;;;;;;5042688;28;20041;-75
2023/02/19 13:40:01;;;;;;;5.45;1.23;;;17.70;48.90;;;;;;5002367;28;20149;-76
2023/02/19 13:42:30;;;;;;;;;;;17.10;49.80;;;;;;5044110;28;20044;-75
2023/02/19 13:44:56;;;;;;;4.85;1.02;;;16.80;50.10;;;;;;5014931;28;19925;-76
2023/02/19 13:47:43;;;;;;;5.05;0.90;;;15.90;51.40;;;;;;5027527;28;20049;-75